2hp Motor Import to India

Connect2India provides real time data for 2hp Motor import, historical 2hp Motor import analysis, current demand in overseas countries and import price of 2hp Motor.

2hp Motor

2hp Motor import data

Date HS Code Product Description Origin Port Destination Port Quantity Value (INR in Million) Unit Per Unit (INR)
2016-01-27 85014010 SINGLE PHASE MOTOR BM-S90L-4 1.5KW 2HP 220/240V (SINGLE PHASE ALU. HOUSING A.C. MOTOR WITH RUN CAPACITOR WITH 3 INCH CHINA Patparganj 3 0.0172 PCS 5731.0
2016-01-27 85015210 BM-B SERIES BRAKE MOTOR WITH REACHTOP BM B 100L6 1.5KW 2HP 240/415V (THREE PHASE ALU. HOUSING A.C. MOTOR) (INDL. MOTOR) CHINA Patparganj 3 0.0295 PCS 9838.0
2016-01-27 85015210 BRAKE MOTOR WITH REACHTOP BRAKE BM-B 90L1-4 1.1KW 2HP 240/415V (THREE PHASE ALU. HOUSING A.C. MOTOR) (INDL. MOTOR) CHINA Patparganj 4 0.0306 PCS 7654.0
2016-02-02 85013119 ELECTRIC MOTOR SUITABLE FOR HL-25 2HP 3POLE 380V TAIWAN Bombay Air Cargo 1 0.0141 PCS 14079.0
2016-02-02 85369090 CONTACTOR FOR FAN MOTOR AIR COMPRESSOR MODEL 245TD 2HP-3HP V575 (OILFIELD SUPPLIES) UNITED STATES Nhava Sheva Sea 1 0.0046 NOS 4578.0
2016-02-03 85044090 AC MOTOR DRIVES ( 5123014107 ) ( VFD015CB43A-20 ) 2HP 460 CB-A0 4 CHINA Nhava Sheva Sea 4 0.0286 PCS 7152.0
2016-02-03 85044090 AC MOTOR DRIVES ( 5123014107 ) ( VFD015E43A ) 2HP 460 E 4 CHINA Nhava Sheva Sea 8 0.0512 PCS 6395.0
2016-02-03 85044090 AC MOTOR DRIVES ( 5123014107 ) ( VFD015EL21A ) 2HP 230S EL-B 3 CHINA Nhava Sheva Sea 9 0.0527 PCS 5854.0
2016-02-03 85044090 AC MOTOR DRIVES ( 5123014107 ) ( VFD015EL43A ) 2HP 460 EL-A 4 CHINA Nhava Sheva Sea 8 0.0444 PCS 5549.0
2016-02-03 85044090 AC MOTOR DRIVES ( 5123014107 ) ( VFD015M21A ) 2HP 230S M 6 CHINA Nhava Sheva Sea 18 0.1095 PCS 6083.0
2016-02-03 85044090 AC MOTOR DRIVES ( 5123014107 ) ( VFD015M43B ) 2HP 460 M 6 CHINA Nhava Sheva Sea 18 0.1236 PCS 6867.0
2016-02-03 85044090 AC MOTOR DRIVES ( 5123014113 ) ( VFD015E43A ) 2HP 460 E 4 CHINA Nhava Sheva Sea 16 0.1022 PCS 6386.0
2016-02-03 85044090 AC MOTOR DRIVES ( 5123014113 ) ( VFD015M21A ) 2HP 230S M 6 CHINA Nhava Sheva Sea 12 0.0729 PCS 6075.0
2016-02-03 85044090 AC MOTOR DRIVES 2HP 460 V 4(5123045123) (VFD015V43A-2) CHINA Delhi Air Cargo 4 0.0576 PCS 14390.0
2016-02-06 85015190 MS SERIES THREE PHASE ALU.HOUSING MOTOR (MODEL:MS 90L1-4)(KW:1.5)(2HP)(VOL/HZ:240/415V 50HZ)(MOUNTING:B35) CHINA Ahmedabad 10 0.0478 PCS 4784.0
2016-02-06 85015190 MSB SERIES BRAKE MOTOR WITH CHINESE BRAKE: (MODEL:MSB 90L1-4)(KW:1.5)(2HP)(VOL/HZ:240/415V 50HZ)(MOUNTING:B35) CHINA Ahmedabad 3 0.0338 PCS 11272.0
2016-02-08 85044090 AC MOTOR DRIVES 2HP 230S EL-B 3 (5122997987) (VFD015EL21A) (BRAND: DELTA) CHINA Patparganj 27 0.1581 PCS 5854.0
2016-02-08 85044090 AC MOTOR DRIVES 2HP 230S M6 (5122997987) 9VFD015M21A) (BRAND: DELTA) CHINA Patparganj 6 0.0365 PCS 6083.0
2016-02-08 85044090 AC MOTOR DRIVES 2HP 460 E 4 (5122997987) (VFD015E43A) (BRAND: DELTA) CHINA Patparganj 8 0.0512 PCS 6395.0
2016-02-08 85044090 AC MOTOR DRIVES 2HP 460 EL-A 4( 5122997987) (VFD015EL43A) (BRAND: DELTA) CHINA Patparganj 20 0.111 PCS 5549.0
2016-02-08 85044090 AC MOTOR DRIVES 2HP 460 M 6 (BRAND: DELTA) CHINA Patparganj 24 0.1648 PCS 6867.0
2016-02-09 84779000 MOTOR AIR SUCTION PORT SEAL 2HP (MODEL NO.: YR10002000000) (AUXILIARY EQUIPMENTS AND SPARE PARTS FOR PLASTICS MACHINERY) CHINA Nhava Sheva Sea 2 1.0E-4 KGS 48.0
2016-02-09 85044090 AC MOTOR DRIVES ( 5123005779 ) ( VFD015E43A ) 2HP 460 E 4 CHINA Nhava Sheva Sea 50 0.3195 PCS 6389.0
2016-02-09 85044090 AC MOTOR DRIVES ( 5123005779 ) ( VFD015EL21A ) 2HP 230S EL-B 3 CHINA Nhava Sheva Sea 120 0.7019 PCS 5848.0
2016-02-09 85044090 AC MOTOR DRIVES ( 5123006506 ) ( VFD015M43B ) 2HP 460 M 6 CHINA Nhava Sheva Sea 6 0.0412 PCS 6860.0
2016-02-09 85044090 AC MOTOR DRIVES ( 5123019613 ) ( VFD015C43A ) 2HP 460 C 2 CHINA Nhava Sheva Sea 5 0.0552 PCS 11039.0
2016-02-09 85044090 AC MOTOR DRIVES ( 5123019613 ) ( VFD015EL3A ) 2HP 460 EL-A 4 CHINA Nhava Sheva Sea 100 0.5544 PCS 5543.0
2016-02-10 85044090 AC MOTOR DRIVES ( 5123021502 ) ( VFD015M21A ) 2HP 230S M 6 CHINA Nhava Sheva Sea 6 0.0364 PCS 6068.0
2016-02-11 85044090 AC MOTOR DRIVES ( 5123005779 ) ( VFD015C43A ) 2HP 460 C 2 CHINA Nhava Sheva Sea 6 0.0663 PCS 11049.0
2016-02-11 85044090 AC MOTOR DRIVES ( 5123005779 ) ( VFD015CB21A-20 ) 2HP 230S CB-A0 4 CHINA Nhava Sheva Sea 40 0.2763 PCS 6908.0
2016-02-11 85044090 AC MOTOR DRIVES ( 5123005779 ) ( VFD015CB43A-20 ) 2HP 460 CB-A0 4 CHINA Nhava Sheva Sea 100 0.7151 PCS 7151.0
2016-02-11 85044090 AC MOTOR DRIVES ( 5123005779 ) ( VFD015V43A-2 ) 2HP 460 V 4 CHINA Nhava Sheva Sea 5 0.069 PCS 13802.0
2016-02-11 85011019 MOTOR M802T 230-400-50 2HP (VE26251701) (MOTOR) AUSTRIA Bombay Air Cargo 2 0.0209 PCS 10469.0
2016-02-12 85044090 AC MOTOR DRIVES 2HP 230S EL-B 3 (5123006500) (VFD015EL21A) (BRAND: DELTA) CHINA Patparganj 15 0.088 PCS 5864.0
2016-02-12 85044090 AC MOTOR DRIVES 2HP 230S M 6 (5123006500) (VFD015M21A) (BRAND: DELTA) CHINA Patparganj 18 0.1097 PCS 6094.0
2016-02-12 85044090 AC MOTOR DRIVES 2HP 460 E 4 (5123006500) (VFD015E43A) (BRAND: DELTA) CHINA Patparganj 8 0.0513 PCS 6407.0
2016-02-12 85044090 AC MOTOR DRIVES 2HP 460 EL-A4 (5123006500) (VFDC15EL43A) (BRAND: DELTA) CHINA Patparganj 56 0.3113 PCS 5559.0
2016-02-12 85044090 AC MOTOR DRIVES 2HP 460 M 6 (5123006500) (VFD015M43B) (BRAND: DELTA) CHINA Patparganj 30 0.2064 PCS 6879.0
2016-02-18 85044090 AC MOTOR DRIVES (2HP 460 EL -A 4 (5123021496) (VFD015EL43A) (BRAND: DELTA) CHINA Tughlakabad 40 0.2222 PCS 5555.0
2016-02-18 85044090 AC MOTOR DRIVES 2HP 230S M6 (5123021496) (VFD015M21A) (BRAND: DELTA) CHINA Tughlakabad 18 0.1096 PCS 6090.0
2016-02-18 85044090 AC MOTOR DRIVES 2HP 460 CB-A0 4 (5123021496) (VFD015CB43A-20) (BRAND: DELTA) CHINA Tughlakabad 4 0.0286 PCS 7159.0
2016-02-18 85044090 AC MOTOR DRIVES 2HP 460 E 4 (5123021496) (VFD015E43A) (BRAND: DELTA) CHINA Tughlakabad 4 0.0256 PCS 6402.0
2016-02-18 85044090 AC MOTOR DRIVES 2HP 460 M 6 (5123025305) (VFD015M43B) (BRAND: DELTA) CHINA Tughlakabad 100 0.6875 PCS 6875.0
2016-02-19 85044090 AC MOTOR DRIVES ( 5123019613 ) ( VFD015E21A ) 2HP 230S E 4 CHINA Nhava Sheva Sea 50 0.3024 PCS 6048.0
2016-02-19 85044090 AC MOTOR DRIVES ( 5123019613 ) ( VFD015M21A ) 2HP 230S M 6 CHINA Nhava Sheva Sea 100 0.6076 PCS 6075.0
2016-02-19 85044090 AC MOTOR DRIVES ( 5123019613 ) ( VFD015M43B ) 2HP 460 M 6 CHINA Nhava Sheva Sea 350 2.4006 PCS 6858.0
2016-02-19 85044090 AC MOTOR DRIVES ( 5123021496 ) ( VFD015M43B ) 2HP 460 M 6 CHINA Nhava Sheva Sea 114 0.7826 PCS 6864.0
2016-02-19 85044090 AC MOTOR DRIVES ( 5123027036 ) ( VFD015E43A ) 2HP 460 E 4 CHINA Nhava Sheva Sea 4 0.0256 PCS 6393.0
2016-02-19 85044090 AC MOTOR DRIVES ( 5123027036 ) ( VFD015EL21A ) 2HP 230S EL-B 3 CHINA Nhava Sheva Sea 27 0.158 PCS 5852.0
2016-02-19 85044090 AC MOTOR DRIVES ( 5123027036 ) ( VFD015EL43A ) 2HP 460 EL-A 4 CHINA Nhava Sheva Sea 24 0.1331 PCS 5547.0
2016-02-19 85044090 AC MOTOR DRIVES ( 5123027036 ) ( VFD015M21A ) 2HP 230S M 6 CHINA Nhava Sheva Sea 12 0.073 PCS 6081.0
2016-02-19 85013210 P56S X123 MOTOR 24 VOLT DCFLANGE/BASE MOUNT 1/2HP 650RPM 24VDC UNITED STATES Delhi Air Cargo 7 0.1651 NOS 23590.0
2016-02-22 85015290 MITSUBISHI BRAND INDUCTION MOTOR MODEL SF-JR 2HP 4POLE 220/380-415V 50HZ THAILAND Delhi Air Cargo 10 0.109 SET 10899.0
2016-02-25 85011019 MOTOR : VERTICAL TYPE 2HP (PARTS OF HEATER TYPE DRYER CCM-H500) (FOR CAPTIVE CONSUMPTION) TAIWAN Patparganj 3 0.061 PCS 20317.0
2016-02-29 85015190 BRAKE MOTOR 2HP TAIWAN Chennai Sea 1 0.1015 PCS 101485.0
2016-03-02 85015390 1 NUM MOTOR, EM7042T-I 3/2HP,1760/1460 75CRISERPM,3PH,60//50HZ UNITED STATES Nhava Sheva Sea 1 0.0666 UNT 66633.0
2016-03-08 84213990 DUST COLLECTOR 1/2HP 2850 RPM 3PH 208-230/460 V 50HZ TEFC MOTOR, 50S50/T3 UNITED STATES Banglore Air Cargo 2 0.1768 NOS 88396.0
2016-03-08 85014090 430458 (024-27322-107) MOTOR TEAO 2HP 460-3-60/400-3-50 UNITED STATES Bombay Air Cargo 3 0.0668 PCS 22251.0
2016-03-09 84314990 CONTACTOR FOR FAN MOTOR AIR COMPRESSOR MODEL 245TD 2HP-3HP V575 UNITED STATES Chennai Sea 1 0.0046 NOS 4556.0
2016-03-10 84659990 WOOD WORKING MACHINERY AND ACCESSORIES: HK-610B AUTO DOUBLESIDE PLANER MOTOR:10HP,2HP,1/2HP.OTH.DETL AS PER INV. TAIWAN Mundra 1 1.2129 SET 1212889.0
2016-03-10 84388090 GW 805N VEGETABLE CUTTER WITH SUS GUIDE (3 LANE)920(L)X600(W)X1220(H)MM 1/2HP MOTOR WITH 1HP INVERTER, MODEL - ECO/292 TAIWAN Tughlakabad 1 0.1646 UNT 164565.0
2016-03-10 84388090 GW 805N VEGETABLE CUTTER WITH SUS GUIDE (3 LANE)920(L)X600(W)X1220(H) MM 1/2HP MOTOR WITH 1HP, MODEL - ECO/289 - (FOOD P TAIWAN Tughlakabad 1 0.1644 UNT 164375.0

Related products

2hp Motor Trade Data - Indian Ports

S. No Product Product Code Quantity Value (INR in Million) Unit Origin Port Destination Port
MOTOR,ELECTRIC AC 145TC FRAME 2HP 3450RPM 480V 3PH 3450RPM (OILWELL EQUIPMENT) 85015290 1 0.0414 NOS UNITED STATES Bombay Air Cargo
INDUSTRIAL SEWING MACHINE MOTOR - 1/2HP 400W COPPER INDUCTION MOTOR 84529099 50 0.0458 UNT CHINA Nhava Sheva Sea
AC MOTOR DRIVES ( 5122990165 ) ( VFD015E43A ) 2HP 460 E 4 85044090 24 0.1512 PCS CHINA Nhava Sheva Sea
AC MOTOR DRIVES ( 5122990165 ) ( VFD015EL43A ) 2HP 460 EL-A 4 85044090 4 0.0219 PCS CHINA Nhava Sheva Sea
AC MOTOR DRIVES ( 5122990165 ) ( VFD015M21A ) 2HP 230S M 6 85044090 6 0.036 PCS CHINA Nhava Sheva Sea
AC MOTOR DRIVES ( 5122990165 ) ( VFD015M43B ) 2HP 460 M 6 85044090 96 0.6494 PCS CHINA Nhava Sheva Sea
AC MOTOR DRIVES 2HP 230S EL-B 3 (5122983837) (VFD015EL21A) (BRAND: DELTA) 85044090 9 0.052 PCS CHINA Tughlakabad
AC MOTOR DRIVES 2HP 230S M6 (5122983837) (VFD015M21A) (BRAND: DELTA) 85044090 54 0.3241 PCS CHINA Tughlakabad
AC MOTOR DRIVES 2HP 460 E4 (5122983837) (VFD015E43A) (BRAND: DELTA) 85044090 16 0.1009 PCS CHINA Tughlakabad
AC MOTOR DRIVES 2HP 460 EL-A 4 (5122983837) (VFD015EL43) (BRAND: DELTA) 85044090 56 0.3066 PCS CHINA Tughlakabad
AC MOTOR DRIVES 2HP 460 M 6 (5122983837) (VFD015M43B) (BRAND: DELTA) 85044090 36 0.2439 PCS CHINA Tughlakabad
AC MOTOR DRIVES ( 5122968747 ) ( VFD015CB43A-20 ) 2HP 460 CB-A0 4 85044090 28 0.1965 PCS CHINA Nhava Sheva Sea
AC MOTOR DRIVES ( 5122968747 ) ( VFD015M43B ) 2HP 460 M 6 85044090 534 3.5989 PCS CHINA Nhava Sheva Sea
AC MOTOR DRIVES ( 5122983843 ) ( VFD015EL21A ) 2HP 230S EL-B 3 85044090 18 0.1034 PCS CHINA Nhava Sheva Sea
AC MOTOR DRIVES ( 5122983843 ) ( VFD015M21A ) 2HP 230S M 6 85044090 42 0.2508 PCS CHINA Nhava Sheva Sea
AC MOTOR DRIVES 2HP 230S M6 4000013602 (5122968753) (VFD015M21A) (BRAND: DELTA) 85044090 72 0.4295 PCS CHINA Tughlakabad
AC MOTOR DRIVES 2HP 460 E 4 4000013602 (5122968753) (VFD015E43A) (BRAND: DELTA) 85044090 60 0.3763 PCS CHINA Tughlakabad
AC MOTOR DRIVES 2HP 460 EL -A 4 4000013602 (5122968753) (VFD015EL43A) (BRAND: DELTA) 85044090 104 0.5659 PCS CHINA Tughlakabad
AC MOTOR DRIVES 2HP 460 M 6 4000013602 (5122968753) (VFD015M43B) (BRAND: DELTA) 85044090 138 0.9292 PCS CHINA Tughlakabad
BLOWER MOTOR 110-230V/50-60HZ PH, 1/2HP (LAUNDRY SPARES) (FOR HOTEL USE) 85012000 1 0.0719 PCS MEXICO Delhi Air Cargo
AC MOTOR DRIVES 2HP 230S EL -B 3 (5122976484) (VFD015EL21A) (BRAND: DELTA) 85044090 12 0.0691 PCS CHINA Patparganj
AC MOTOR DRIVES 2HP 230S M 6(5122976484) VFD015M21A) (BRAND: DELTA) 85044090 6 0.0359 PCS CHINA Patparganj
AC MOTOR DRIVES 2HP 460 EL-A 4 (5122976484) (VFD015EL43A) (BRAND: DELTA) 85044090 12 0.0655 PCS CHINA Patparganj
AC MOTOR DRIVES 2HP 460 M 6(5122976484)(VFD015M43B) (BRAND: DELTA) 85044090 18 0.1215 PCS CHINA Patparganj
MOTOR 2HP/3HP 50/60HZ 3PH ( PART# 4610551811 ) 85013210 1 0.0236 NOS UNITED STATES Banglore Air Cargo

Looking to import 2hp Motor?

With end to end global trade solutions from Connect2India, we enable Indian SMEs to start and grow their business globally

Yearwise analysis of 2hp Motor import to India

Below is the detailed list of 2hp Motor import to India with quantity, volume, price, origin port and the destination port.

Increase your 2hp Motor imports with steady access to working capital with our import financing solutions at Connect2India.

Looking to import 2hp Motor from genuine and best quality Indian suppliers?

Graphical representation for 2hp Motor import

2hp Motor - Recent import data

How connect2india can help you import 2hp Motor?

Connect2India can help you find 2hp Motor suppliers / exporters in more than 100 countries, arrange import orders for 2hp Motor, find the most effective market to import 2hp Motor, help you out with procedures and formalities required to import 2hp Motor in India and also assist you in 2hp Motor shipment and logistics. Our trade experts are always available for any help regarding the import of 2hp Motor and its products. If you want more information, please get in touch with our trade experts here

People Also Ask

Whom can I contact for more information on 2hp Motor import to India?

You can submit your requirement on Connect2India and our representative will get in touch with you with more information about 2hp Motor. Alternatively, you can call us @ +91-7876759999 or email us to info@connect2India.com

Which is the most popular Indian port for 2hp Motor import?

Nhava Sheva Sea is the most popular port for 2hp Motor import to India

What are the top three import shipments of 2hp Motor traded to India?

Following are the top three import shipments of 2hp Motor traded to India :

  • SINGLE PHASE MOTOR BM-S90L-4 1.5KW 2HP 220/240V (SINGLE PHASE ALU. HOUSING A.C. MOTOR WITH RUN CAPACITOR WITH 3 INCH
  • BM-B SERIES BRAKE MOTOR WITH REACHTOP BM B 100L6 1.5KW 2HP 240/415V (THREE PHASE ALU. HOUSING A.C. MOTOR) (INDL. MOTOR)
  • BRAKE MOTOR WITH REACHTOP BRAKE BM-B 90L1-4 1.1KW 2HP 240/415V (THREE PHASE ALU. HOUSING A.C. MOTOR) (INDL. MOTOR)